createdAt,value
2018-12-18T00:00:45.097Z,99.99
2018-12-18T00:01:45.133Z,99.99
2018-12-18T00:02:45.078Z,99.99
2018-12-18T00:03:45.062Z,99.99
2018-12-18T00:04:45.052Z,99.99
2018-12-18T00:05:45.044Z,99.99
2018-12-18T00:06:45.046Z,99.99
2018-12-18T00:07:45.068Z,99.99
2018-12-18T00:08:45.011Z,99.99
2018-12-18T00:09:44.997Z,99.99
2018-12-18T00:10:44.988Z,99.99
2018-12-18T00:11:44.977Z,99.99
2018-12-18T00:12:44.969Z,99.99
2018-12-18T00:13:44.982Z,99.99
2018-12-18T00:14:44.947Z,99.99
2018-12-18T00:15:44.942Z,99.99
2018-12-18T00:16:44.927Z,99.99
2018-12-18T00:17:44.912Z,99.99
2018-12-18T00:18:44.919Z,99.99
2018-12-18T00:19:44.893Z,99.99
2018-12-18T00:20:44.887Z,99.99
2018-12-18T00:21:44.869Z,99.99
2018-12-18T00:22:44.860Z,99.99
2018-12-18T00:23:44.869Z,99.99
2018-12-18T00:24:44.837Z,99.99
2018-12-18T00:25:44.831Z,99.99
2018-12-18T00:26:44.819Z,99.99
2018-12-18T00:27:44.811Z,99.99
2018-12-18T00:28:44.817Z,99.99
2018-12-18T00:29:44.780Z,99.99
2018-12-18T00:30:44.772Z,99.99
2018-12-18T00:31:45.039Z,99.99
2018-12-18T00:32:44.750Z,99.99
2018-12-18T00:33:46.118Z,99.99
2018-12-18T00:34:44.736Z,99.99
2018-12-18T00:35:44.755Z,99.99
2018-12-18T00:36:44.781Z,99.99
2018-12-18T00:37:44.702Z,99.99
2018-12-18T00:38:44.710Z,99.99
2018-12-18T00:39:44.678Z,99.99
2018-12-18T00:40:44.668Z,99.99
2018-12-18T00:41:44.671Z,99.99
2018-12-18T00:42:44.643Z,99.99
2018-12-18T00:43:44.631Z,99.99
2018-12-18T00:44:44.642Z,99.99
2018-12-18T00:45:44.614Z,99.99
2018-12-18T00:46:44.602Z,99.99
2018-12-18T00:47:44.590Z,99.99
2018-12-18T00:48:44.604Z,99.99
2018-12-18T00:49:44.599Z,99.99
2018-12-18T00:50:44.556Z,99.99
2018-12-18T00:51:44.545Z,99.99
2018-12-18T00:52:44.537Z,99.99
2018-12-18T00:53:44.540Z,99.99
2018-12-18T00:54:44.528Z,99.99
2018-12-18T00:55:44.499Z,99.99
2018-12-18T00:56:44.487Z,99.99
2018-12-18T00:57:44.484Z,99.99
2018-12-18T00:58:44.487Z,99.99
2018-12-18T00:59:44.461Z,99.99
2018-12-18T01:00:44.449Z,99.99
2018-12-18T01:01:44.433Z,99.99
2018-12-18T01:02:44.446Z,99.91
2018-12-18T01:03:44.432Z,99.99
2018-12-18T01:04:44.402Z,99.99
2018-12-18T01:05:44.419Z,99.99
2018-12-18T01:06:44.383Z,99.99
2018-12-18T01:07:44.372Z,99.99
2018-12-18T01:08:44.381Z,99.99
2018-12-18T01:09:44.355Z,99.80
2018-12-18T01:10:44.341Z,99.34
2018-12-18T01:11:44.330Z,99.76
2018-12-18T01:12:44.321Z,98.93
2018-12-18T01:13:44.305Z,98.93
2018-12-18T01:14:44.318Z,99.04
2018-12-18T01:15:44.283Z,99.04
2018-12-18T01:16:44.270Z,99.14
2018-12-18T01:17:44.283Z,98.93
2018-12-18T01:18:44.258Z,98.72
2018-12-18T01:19:44.263Z,98.62
2018-12-18T01:20:44.257Z,99.04
2018-12-18T01:21:44.222Z,98.62
2018-12-18T01:22:44.239Z,98.72
2018-12-18T01:23:44.236Z,98.21
2018-12-18T01:24:44.190Z,98.62
2018-12-18T01:25:44.177Z,98.62
2018-12-18T01:26:44.166Z,98.52
2018-12-18T01:27:44.156Z,98.62
2018-12-18T01:28:44.144Z,98.62
2018-12-18T01:29:44.157Z,98.72
2018-12-18T01:30:44.142Z,98.72
2018-12-18T01:31:44.116Z,99.04
2018-12-18T01:32:44.103Z,99.04
2018-12-18T01:33:44.089Z,99.04
2018-12-18T01:34:44.082Z,98.93
2018-12-18T01:35:44.094Z,99.14
2018-12-18T01:36:44.055Z,98.83
2018-12-18T01:37:44.053Z,98.83
2018-12-18T01:38:44.039Z,98.93
2018-12-18T01:39:44.030Z,99.04
2018-12-18T01:40:44.014Z,98.93
2018-12-18T01:41:44.029Z,98.72
2018-12-18T01:42:44.002Z,99.24
2018-12-18T01:43:44.013Z,98.62
2018-12-18T01:44:43.976Z,98.72
2018-12-18T01:45:43.957Z,98.10
2018-12-18T01:46:43.951Z,97.79
2018-12-18T01:47:43.939Z,98.10
2018-12-18T01:48:43.929Z,98.41
2018-12-18T01:49:43.948Z,98.35
2018-12-18T01:50:43.934Z,98.31
2018-12-18T01:51:43.907Z,98.10
2018-12-18T01:52:43.890Z,97.89
2018-12-18T01:53:43.874Z,98.10
2018-12-18T01:54:43.867Z,98.21
2018-12-18T01:55:43.877Z,97.59
2018-12-18T01:56:43.854Z,98.41
2018-12-18T01:57:43.838Z,98.31
2018-12-18T01:58:43.830Z,98.31
2018-12-18T01:59:43.816Z,97.94
2018-12-18T02:00:43.821Z,98.56
2018-12-18T02:01:43.793Z,98.35
2018-12-18T02:02:43.783Z,98.62
2018-12-18T02:03:43.791Z,98.56
2018-12-18T02:04:43.761Z,98.52
2018-12-18T02:05:43.744Z,98.66
2018-12-18T02:06:43.737Z,98.56
2018-12-18T02:07:43.729Z,98.77
2018-12-18T02:08:43.743Z,98.66
2018-12-18T02:09:43.709Z,99.18
2018-12-18T02:10:43.698Z,98.56
2018-12-18T02:11:43.681Z,98.97
2018-12-18T02:12:43.676Z,98.97
2018-12-18T02:13:43.663Z,98.97
2018-12-18T02:14:43.672Z,98.97
2018-12-18T02:15:43.675Z,99.13
2018-12-18T02:16:43.636Z,98.71
2018-12-18T02:17:43.619Z,98.77
2018-12-18T02:18:43.623Z,98.15
2018-12-18T02:19:43.614Z,98.46
2018-12-18T02:20:43.588Z,98.82
2018-12-18T02:21:43.587Z,98.71
2018-12-18T02:22:43.568Z,99.02
2018-12-18T02:23:43.576Z,99.43
2018-12-18T02:24:43.553Z,99.02
2018-12-18T02:25:43.528Z,98.71
2018-12-18T02:26:43.521Z,98.82
2018-12-18T02:27:43.513Z,98.61
2018-12-18T02:28:43.503Z,98.40
2018-12-18T02:29:43.506Z,98.71
2018-12-18T02:30:43.478Z,98.19
2018-12-18T02:31:43.466Z,99.27
2018-12-18T02:32:43.457Z,99.07
2018-12-18T02:33:43.474Z,98.86
2018-12-18T02:34:43.440Z,99.07
2018-12-18T02:35:43.426Z,99.11
2018-12-18T02:36:43.423Z,99.52
2018-12-18T02:37:43.405Z,99.63
2018-12-18T02:38:43.413Z,99.84
2018-12-18T02:39:43.384Z,99.52
2018-12-18T02:40:43.368Z,99.63
2018-12-18T02:41:43.371Z,99.78
2018-12-18T02:42:43.349Z,99.57
2018-12-18T02:43:43.363Z,99.99
2018-12-18T02:44:43.324Z,99.99
2018-12-18T02:45:43.321Z,99.99
2018-12-18T02:46:43.312Z,99.99
2018-12-18T02:47:43.296Z,99.99
2018-12-18T02:48:43.296Z,99.99
2018-12-18T02:49:43.294Z,99.99
2018-12-18T02:50:43.264Z,99.99
2018-12-18T02:51:43.266Z,99.99
2018-12-18T02:52:43.261Z,99.99
2018-12-18T02:53:43.231Z,99.99
2018-12-18T02:54:43.217Z,99.99
2018-12-18T02:55:43.231Z,99.99
2018-12-18T02:56:43.198Z,99.62
2018-12-18T02:57:43.191Z,99.04
2018-12-18T02:58:43.188Z,99.99
2018-12-18T02:59:43.183Z,99.99
2018-12-18T03:00:43.155Z,99.99
2018-12-18T03:01:43.147Z,99.99
2018-12-18T03:02:43.137Z,99.99
2018-12-18T03:03:43.143Z,99.99
2018-12-18T03:04:43.130Z,99.99
2018-12-18T03:05:43.100Z,99.99
2018-12-18T03:06:43.086Z,99.99
2018-12-18T03:07:43.073Z,99.99
2018-12-18T03:08:43.090Z,99.99
2018-12-18T03:09:43.058Z,99.99
2018-12-18T03:10:43.058Z,99.99
2018-12-18T03:11:43.038Z,99.99
2018-12-18T03:12:43.033Z,99.99
2018-12-18T03:13:43.011Z,99.99
2018-12-18T03:14:43.024Z,99.99
2018-12-18T03:15:42.997Z,99.99
2018-12-18T03:16:42.982Z,99.99
2018-12-18T03:17:42.970Z,99.99
2018-12-18T03:18:42.953Z,99.99
2018-12-18T03:19:42.955Z,99.99
2018-12-18T03:20:43.153Z,99.99
2018-12-18T03:21:42.926Z,99.99
2018-12-18T03:22:42.922Z,99.99
2018-12-18T03:23:42.925Z,99.99
2018-12-18T03:24:42.899Z,99.99
2018-12-18T03:25:42.887Z,99.99
2018-12-18T03:26:42.876Z,99.99
2018-12-18T03:27:42.858Z,99.99
2018-12-18T03:28:42.867Z,99.99
2018-12-18T03:29:42.840Z,99.99
2018-12-18T03:30:42.859Z,99.99
2018-12-18T03:31:42.821Z,99.99
2018-12-18T03:32:42.808Z,99.99
2018-12-18T03:33:42.849Z,99.99
2018-12-18T03:34:43.680Z,99.99
2018-12-18T03:35:42.803Z,99.99
2018-12-18T03:36:42.774Z,99.99
2018-12-18T03:37:42.753Z,99.99
2018-12-18T03:38:42.743Z,99.99
2018-12-18T03:39:42.736Z,99.99
2018-12-18T03:40:42.748Z,99.99
2018-12-18T03:41:42.727Z,99.99
2018-12-18T03:42:42.706Z,99.99
2018-12-18T03:43:42.695Z,99.99
2018-12-18T03:44:42.683Z,99.99
2018-12-18T03:45:42.691Z,99.99
2018-12-18T03:46:42.659Z,99.99
2018-12-18T03:47:42.680Z,99.99
2018-12-18T03:48:42.641Z,99.99
2018-12-18T03:49:42.629Z,99.99
2018-12-18T03:50:42.618Z,99.99
2018-12-18T03:51:42.607Z,99.99
2018-12-18T03:52:42.596Z,99.99
2018-12-18T03:53:42.605Z,99.99
2018-12-18T03:54:42.578Z,99.99
2018-12-18T03:55:42.592Z,99.99
2018-12-18T03:56:42.556Z,99.99
2018-12-18T03:57:42.544Z,99.99
2018-12-18T03:58:42.530Z,99.99
2018-12-18T03:59:42.521Z,99.99
2018-12-18T04:00:42.512Z,99.99
2018-12-18T04:01:42.524Z,99.99
2018-12-18T04:02:42.497Z,99.99
2018-12-18T04:03:42.493Z,99.99
2018-12-18T04:04:42.475Z,99.99
2018-12-18T04:05:42.477Z,99.99
2018-12-18T04:06:42.450Z,99.99
2018-12-18T04:07:42.444Z,99.99
2018-12-18T04:08:42.427Z,99.99
2018-12-18T04:09:42.417Z,99.99
2018-12-18T04:10:42.417Z,99.99
2018-12-18T04:11:42.419Z,99.99
2018-12-18T04:12:42.381Z,99.99
2018-12-18T04:13:42.377Z,99.99
2018-12-18T04:14:42.369Z,99.99
2018-12-18T04:15:42.354Z,99.99
2018-12-18T04:16:42.342Z,99.99
2018-12-18T04:17:42.346Z,99.99
2018-12-18T04:18:42.346Z,99.99
2018-12-18T04:19:42.324Z,99.99
2018-12-18T04:20:42.330Z,99.99
2018-12-18T04:21:42.287Z,99.99
2018-12-18T04:22:42.280Z,99.99
2018-12-18T04:23:42.272Z,99.99
2018-12-18T04:24:42.253Z,99.99
2018-12-18T04:25:42.271Z,99.99
2018-12-18T04:26:42.241Z,99.99
2018-12-18T04:27:42.236Z,99.99
2018-12-18T04:28:42.234Z,99.99
2018-12-18T04:29:42.199Z,99.99
2018-12-18T04:30:42.190Z,99.99
2018-12-18T04:31:42.194Z,99.99
2018-12-18T04:32:42.166Z,99.99
2018-12-18T04:33:42.180Z,99.99
2018-12-18T04:34:43.091Z,99.99
2018-12-18T04:35:42.140Z,99.99
2018-12-18T04:36:42.150Z,99.99
2018-12-18T04:37:42.118Z,99.99
2018-12-18T04:38:42.108Z,99.99
2018-12-18T04:39:42.094Z,99.99
2018-12-18T04:40:42.089Z,99.99
2018-12-18T04:41:42.073Z,99.99
2018-12-18T04:42:42.118Z,99.77
2018-12-18T04:43:42.068Z,99.04
2018-12-18T04:44:42.049Z,99.51
2018-12-18T04:45:42.039Z,99.15
2018-12-18T04:46:42.022Z,99.51
2018-12-18T04:47:42.011Z,99.35
2018-12-18T04:48:42.023Z,99.30
2018-12-18T04:49:41.988Z,99.30
2018-12-18T04:50:41.975Z,99.40
2018-12-18T04:51:41.986Z,99.19
2018-12-18T04:52:41.962Z,99.40
2018-12-18T04:53:41.958Z,99.30
2018-12-18T04:54:41.946Z,99.92
2018-12-18T04:55:41.921Z,99.71
2018-12-18T04:56:41.948Z,99.40
2018-12-18T04:57:41.902Z,99.40
2018-12-18T04:58:41.893Z,99.19
2018-12-18T04:59:41.879Z,99.19
2018-12-18T05:00:41.870Z,99.44
2018-12-18T05:01:41.887Z,99.65
2018-12-18T05:02:41.845Z,99.34
2018-12-18T05:03:41.835Z,99.86
2018-12-18T05:04:41.822Z,99.86
2018-12-18T05:05:41.816Z,99.99
2018-12-18T05:06:41.831Z,99.99
2018-12-18T05:07:41.797Z,99.99
2018-12-18T05:08:41.777Z,99.99
2018-12-18T05:09:41.772Z,99.99
2018-12-18T05:10:41.778Z,99.99
2018-12-18T05:11:41.751Z,99.99
2018-12-18T05:12:41.765Z,99.99
2018-12-18T05:13:41.722Z,99.99
2018-12-18T05:14:41.715Z,99.99
2018-12-18T05:15:41.704Z,99.99
2018-12-18T05:16:41.727Z,99.99
2018-12-18T05:17:41.688Z,99.99
2018-12-18T05:18:41.691Z,99.99
2018-12-18T05:19:41.663Z,99.99
2018-12-18T05:20:41.656Z,99.99
2018-12-18T05:21:41.663Z,99.99
2018-12-18T05:22:41.628Z,99.99
2018-12-18T05:23:41.631Z,99.99
2018-12-18T05:24:41.615Z,99.99
2018-12-18T05:25:41.600Z,99.99
2018-12-18T05:26:41.586Z,99.99
2018-12-18T05:27:41.595Z,99.99
2018-12-18T05:28:41.566Z,99.99
2018-12-18T05:29:41.560Z,99.99
2018-12-18T05:30:41.546Z,99.99
2018-12-18T05:31:41.556Z,99.99
2018-12-18T05:32:41.525Z,99.99
2018-12-18T05:33:41.553Z,99.99
2018-12-18T05:34:41.504Z,99.99
2018-12-18T05:35:41.489Z,99.99
2018-12-18T05:36:41.478Z,99.99
2018-12-18T05:37:41.476Z,99.99
2018-12-18T05:38:41.482Z,99.99
2018-12-18T05:39:41.455Z,99.55
2018-12-18T05:40:41.434Z,99.99
2018-12-18T05:41:41.431Z,99.86
2018-12-18T05:42:41.429Z,99.76
2018-12-18T05:43:41.438Z,99.76
2018-12-18T05:44:41.398Z,99.96
2018-12-18T05:45:41.379Z,99.99
2018-12-18T05:46:41.380Z,99.86
2018-12-18T05:47:41.362Z,99.76
2018-12-18T05:48:41.368Z,99.99
2018-12-18T05:49:41.347Z,99.96
2018-12-18T05:50:41.331Z,99.96
2018-12-18T05:51:41.322Z,99.86
2018-12-18T05:52:41.330Z,99.55
2018-12-18T05:53:41.313Z,99.76
2018-12-18T05:54:41.294Z,99.24
2018-12-18T05:55:41.285Z,99.86
2018-12-18T05:56:41.275Z,99.76
2018-12-18T05:57:41.259Z,99.34
2018-12-18T05:58:41.266Z,99.86
2018-12-18T05:59:41.232Z,99.99
2018-12-18T06:00:41.221Z,99.99
2018-12-18T06:01:41.223Z,99.86
2018-12-18T06:02:41.202Z,99.34
2018-12-18T06:03:41.197Z,99.40
2018-12-18T06:04:41.198Z,99.40
2018-12-18T06:05:41.164Z,98.93
2018-12-18T06:06:41.157Z,99.13
2018-12-18T06:07:41.163Z,99.61
2018-12-18T06:08:41.134Z,98.93
2018-12-18T06:09:41.129Z,98.93
2018-12-18T06:10:41.117Z,99.44
2018-12-18T06:11:41.104Z,99.55
2018-12-18T06:12:41.110Z,99.44
2018-12-18T06:13:41.084Z,99.40
2018-12-18T06:14:41.070Z,99.13
2018-12-18T06:15:41.064Z,99.51
2018-12-18T06:16:41.054Z,99.44
2018-12-18T06:17:41.035Z,99.44
2018-12-18T06:18:41.045Z,99.65
2018-12-18T06:19:41.016Z,99.34
2018-12-18T06:20:41.002Z,99.44
2018-12-18T06:21:41.001Z,99.40
2018-12-18T06:22:40.984Z,98.93
2018-12-18T06:23:41.004Z,99.44
2018-12-18T06:24:40.966Z,99.44
2018-12-18T06:25:40.952Z,99.44
2018-12-18T06:26:40.939Z,99.24
2018-12-18T06:27:40.933Z,99.44
2018-12-18T06:28:40.944Z,99.76
2018-12-18T06:29:40.905Z,99.86
2018-12-18T06:30:40.911Z,99.76
2018-12-18T06:31:40.884Z,99.24
2018-12-18T06:32:40.876Z,99.55
2018-12-18T06:33:40.888Z,99.34
2018-12-18T06:34:40.854Z,99.55
2018-12-18T06:35:40.845Z,99.44
2018-12-18T06:36:40.835Z,99.34
2018-12-18T06:37:40.819Z,99.13
2018-12-18T06:38:40.840Z,99.65
2018-12-18T06:39:40.799Z,99.44
2018-12-18T06:40:40.787Z,99.44
2018-12-18T06:41:40.782Z,99.34
2018-12-18T06:42:40.769Z,99.34
2018-12-18T06:43:40.776Z,99.34
2018-12-18T06:44:40.743Z,99.55
2018-12-18T06:45:40.742Z,99.34
2018-12-18T06:46:40.727Z,99.24
2018-12-18T06:47:40.752Z,99.24
2018-12-18T06:48:40.732Z,99.55
2018-12-18T06:49:40.699Z,99.82
2018-12-18T06:50:40.691Z,98.82
2018-12-18T06:51:40.676Z,98.88
2018-12-18T06:52:40.658Z,98.41
2018-12-18T06:53:40.677Z,98.36
2018-12-18T06:54:40.642Z,98.61
2018-12-18T06:55:40.637Z,98.72
2018-12-18T06:56:40.624Z,99.09
2018-12-18T06:57:40.611Z,98.99
2018-12-18T06:58:40.660Z,98.99
2018-12-18T06:59:40.613Z,99.19
2018-12-18T07:00:40.591Z,98.99
2018-12-18T07:01:40.565Z,99.09
2018-12-18T07:02:40.559Z,98.57
2018-12-18T07:03:40.567Z,98.26
2018-12-18T07:04:40.533Z,98.57
2018-12-18T07:05:40.536Z,98.05
2018-12-18T07:06:40.517Z,98.26
2018-12-18T07:07:40.506Z,98.16
2018-12-18T07:08:40.521Z,98.05
2018-12-18T07:09:40.509Z,98.26
2018-12-18T07:10:40.468Z,98.47
2018-12-18T07:11:40.459Z,98.42
2018-12-18T07:12:40.458Z,97.85
2018-12-18T07:13:40.443Z,97.38
2018-12-18T07:14:40.448Z,97.28
2018-12-18T07:15:40.476Z,97.33
2018-12-18T07:16:40.429Z,97.28
2018-12-18T07:17:40.423Z,96.70
2018-12-18T07:18:40.390Z,96.97
2018-12-18T07:19:40.379Z,97.17
2018-12-18T07:20:40.380Z,97.07
2018-12-18T07:21:40.357Z,96.86
2018-12-18T07:22:40.349Z,96.55
2018-12-18T07:23:40.355Z,96.97
2018-12-18T07:24:40.338Z,97.17
2018-12-18T07:25:40.314Z,97.02
2018-12-18T07:26:40.302Z,97.12
2018-12-18T07:27:40.293Z,97.17
2018-12-18T07:28:40.284Z,97.38
2018-12-18T07:29:40.321Z,97.07
2018-12-18T07:30:40.280Z,97.07
2018-12-18T07:31:40.291Z,96.66
2018-12-18T07:32:40.241Z,96.24
2018-12-18T07:33:40.234Z,96.55
2018-12-18T07:34:40.242Z,96.76
2018-12-18T07:35:40.207Z,96.55
2018-12-18T07:36:40.200Z,96.55
2018-12-18T07:37:40.187Z,96.14
2018-12-18T07:38:40.192Z,96.30
2018-12-18T07:39:40.163Z,96.09
2018-12-18T07:40:40.204Z,95.89
2018-12-18T07:41:40.139Z,96.61
2018-12-18T07:42:40.137Z,96.30
2018-12-18T07:43:40.162Z,96.03
2018-12-18T07:44:40.166Z,95.93
2018-12-18T07:45:40.106Z,96.14
2018-12-18T07:46:40.096Z,96.09
2018-12-18T07:47:40.077Z,96.30
2018-12-18T07:48:40.090Z,96.20
2018-12-18T07:49:40.063Z,96.30
2018-12-18T07:50:40.054Z,95.89
2018-12-18T07:51:40.042Z,95.89
2018-12-18T07:52:40.035Z,96.51
2018-12-18T07:53:40.011Z,95.89
2018-12-18T07:54:40.051Z,96.61
2018-12-18T07:55:39.992Z,96.66
2018-12-18T07:56:39.977Z,96.61
2018-12-18T07:57:39.976Z,96.34
2018-12-18T07:58:39.968Z,96.24
2018-12-18T07:59:39.974Z,96.34
2018-12-18T08:00:39.942Z,96.34
2018-12-18T08:01:39.929Z,96.03
2018-12-18T08:02:39.921Z,96.76
2018-12-18T08:03:39.927Z,96.91
2018-12-18T08:04:39.916Z,96.76
2018-12-18T08:05:39.885Z,97.33
2018-12-18T08:06:39.884Z,97.33
2018-12-18T08:07:39.915Z,97.22
2018-12-18T08:08:39.848Z,97.28
2018-12-18T08:09:40.718Z,97.38
2018-12-18T08:10:39.829Z,97.28
2018-12-18T08:11:39.818Z,97.22
2018-12-18T08:12:39.842Z,97.64
2018-12-18T08:13:39.823Z,97.33
2018-12-18T08:14:39.807Z,97.33
2018-12-18T08:15:39.776Z,97.33
2018-12-18T08:16:39.763Z,97.85
2018-12-18T08:17:39.757Z,97.95
2018-12-18T08:18:39.769Z,97.59
2018-12-18T08:19:39.763Z,97.33
2018-12-18T08:20:39.721Z,97.49
2018-12-18T08:21:39.711Z,97.07
2018-12-18T08:22:39.699Z,96.86
2018-12-18T08:23:39.771Z,97.17
2018-12-18T08:24:39.679Z,96.61
2018-12-18T08:25:39.784Z,95.89
2018-12-18T08:26:39.653Z,95.99
2018-12-18T08:27:39.644Z,95.89
2018-12-18T08:28:39.643Z,95.68
2018-12-18T08:29:39.625Z,96.41
2018-12-18T08:30:39.630Z,95.74
2018-12-18T08:31:39.601Z,95.64
2018-12-18T08:32:39.664Z,95.68
2018-12-18T08:33:39.594Z,95.12
2018-12-18T08:34:39.606Z,94.91
2018-12-18T08:35:39.579Z,95.01
2018-12-18T08:36:39.550Z,95.12
2018-12-18T08:37:39.531Z,94.70
2018-12-18T08:38:39.527Z,94.97
2018-12-18T08:39:39.512Z,94.87
2018-12-18T08:40:39.535Z,95.07
2018-12-18T08:41:39.511Z,95.07
2018-12-18T08:42:39.487Z,94.45
2018-12-18T08:43:39.469Z,94.24
2018-12-18T08:44:39.458Z,93.68
2018-12-18T08:45:39.477Z,93.48
2018-12-18T08:46:39.439Z,93.68
2018-12-18T08:47:39.428Z,93.37
2018-12-18T08:48:39.490Z,93.68
2018-12-18T08:49:39.404Z,93.79
2018-12-18T08:50:39.421Z,93.48
2018-12-18T08:51:39.386Z,93.89
2018-12-18T08:52:39.373Z,93.48
2018-12-18T08:53:39.372Z,93.48
2018-12-18T08:54:39.370Z,93.37
2018-12-18T08:55:39.337Z,93.74
2018-12-18T08:56:39.343Z,93.64
2018-12-18T08:57:39.334Z,93.43
2018-12-18T08:58:39.312Z,93.23
2018-12-18T08:59:39.303Z,92.46
2018-12-18T09:00:39.306Z,92.91
2018-12-18T09:01:39.280Z,92.67
2018-12-18T09:02:39.259Z,92.36
2018-12-18T09:03:39.252Z,92.57
2018-12-18T09:04:39.242Z,92.67
2018-12-18T09:05:43.132Z,91.38
2018-12-18T09:06:39.240Z,92.32
2018-12-18T09:07:39.255Z,91.24
2018-12-18T09:08:39.193Z,91.49
2018-12-18T09:09:39.220Z,91.49
2018-12-18T09:10:39.963Z,91.03
2018-12-18T09:11:39.174Z,91.24
2018-12-18T09:12:39.157Z,90.72
2018-12-18T09:13:39.156Z,90.62
2018-12-18T09:14:39.135Z,90.72
2018-12-18T09:15:39.150Z,90.78
2018-12-18T09:16:39.142Z,90.37
2018-12-18T09:17:39.104Z,90.06
2018-12-18T09:18:39.110Z,90.37
2018-12-18T09:19:39.084Z,90.89
2018-12-18T09:20:39.104Z,90.68
2018-12-18T09:21:39.067Z,90.33
2018-12-18T09:22:39.047Z,90.02
2018-12-18T09:23:39.039Z,90.12
2018-12-18T09:24:39.026Z,90.33
2018-12-18T09:25:39.013Z,88.82
2018-12-18T09:26:39.020Z,89.50
2018-12-18T09:27:38.992Z,90.12
2018-12-18T09:28:38.979Z,89.92
2018-12-18T09:29:39.004Z,90.12
2018-12-18T09:30:42.509Z,88.89
2018-12-18T09:31:38.979Z,89.46
2018-12-18T09:32:38.954Z,88.74
2018-12-18T09:33:38.931Z,88.32
2018-12-18T09:34:38.920Z,87.40
2018-12-18T09:35:38.904Z,87.56
2018-12-18T09:36:38.919Z,88.53
2018-12-18T09:37:38.916Z,87.66
2018-12-18T09:38:38.877Z,88.29
2018-12-18T09:39:38.864Z,87.87
2018-12-18T09:40:38.854Z,87.42
2018-12-18T09:41:38.847Z,88.65
2018-12-18T09:42:38.835Z,87.01
2018-12-18T09:43:38.843Z,87.01
2018-12-18T09:44:38.829Z,88.14
2018-12-18T09:45:38.796Z,86.39
2018-12-18T09:46:38.806Z,86.18
2018-12-18T09:47:38.775Z,87.32
2018-12-18T09:48:38.765Z,86.70
2018-12-18T09:49:38.776Z,86.18
2018-12-18T09:50:38.748Z,86.18
2018-12-18T09:51:38.753Z,86.18
2018-12-18T09:52:38.726Z,86.39
2018-12-18T09:53:38.708Z,87.73
2018-12-18T09:54:38.716Z,87.11
2018-12-18T09:55:38.689Z,87.32
2018-12-18T09:56:38.704Z,87.52
2018-12-18T09:57:38.697Z,87.52
2018-12-18T09:58:38.685Z,87.73
2018-12-18T09:59:38.664Z,87.83
2018-12-18T10:00:38.631Z,86.80
2018-12-18T10:01:38.628Z,86.24
2018-12-18T10:02:38.615Z,86.15
2018-12-18T10:03:38.631Z,86.55
2018-12-18T10:04:38.595Z,86.10
2018-12-18T10:05:38.577Z,86.31
2018-12-18T10:06:38.570Z,86.93
2018-12-18T10:07:38.565Z,84.87
2018-12-18T10:08:38.547Z,86.21
2018-12-18T10:09:38.562Z,85.07
2018-12-18T10:10:38.528Z,86.10
2018-12-18T10:11:38.522Z,85.38
2018-12-18T10:12:38.518Z,85.79
2018-12-18T10:13:38.496Z,85.07
2018-12-18T10:14:38.484Z,86.00
2018-12-18T10:15:38.472Z,85.38
2018-12-18T10:16:38.463Z,86.31
2018-12-18T10:17:38.465Z,85.52
2018-12-18T10:18:38.462Z,86.24
2018-12-18T10:19:38.483Z,86.35
2018-12-18T10:20:38.416Z,85.89
2018-12-18T10:21:38.412Z,86.06
2018-12-18T10:22:38.396Z,84.83
2018-12-18T10:23:38.387Z,84.52
2018-12-18T10:24:38.377Z,85.30
2018-12-18T10:25:38.381Z,83.86
2018-12-18T10:26:38.350Z,83.55
2018-12-18T10:27:38.366Z,83.04
2018-12-18T10:28:38.333Z,82.28
2018-12-18T10:29:38.319Z,82.59
2018-12-18T10:30:38.306Z,82.93
2018-12-18T10:31:38.299Z,83.35
2018-12-18T10:32:38.283Z,82.83
2018-12-18T10:33:38.297Z,82.63
2018-12-18T10:34:38.266Z,81.70
2018-12-18T10:35:38.257Z,81.67
2018-12-18T10:36:38.247Z,81.87
2018-12-18T10:37:38.246Z,81.76
2018-12-18T10:38:38.219Z,82.18
2018-12-18T10:39:38.246Z,83.00
2018-12-18T10:40:38.196Z,81.97
2018-12-18T10:41:38.192Z,81.46
2018-12-18T10:42:38.204Z,80.53
2018-12-18T10:43:38.166Z,80.91
2018-12-18T10:44:38.152Z,80.53
2018-12-18T10:45:38.154Z,81.76
2018-12-18T10:46:38.135Z,80.84
2018-12-18T10:47:38.123Z,82.55
2018-12-18T10:48:38.138Z,80.91
2018-12-18T10:49:38.098Z,80.91
2018-12-18T10:50:38.090Z,81.32
2018-12-18T10:51:38.078Z,80.25
2018-12-18T10:52:38.064Z,80.29
2018-12-18T10:53:38.061Z,79.88
2018-12-18T10:54:38.065Z,80.39
2018-12-18T10:55:38.035Z,81.11
2018-12-18T10:56:38.028Z,80.80
2018-12-18T10:57:38.008Z,80.56
2018-12-18T10:58:38.000Z,79.33
2018-12-18T10:59:38.016Z,78.30
2018-12-18T11:00:37.984Z,78.67
2018-12-18T11:01:37.965Z,79.29
2018-12-18T11:02:37.967Z,78.33
2018-12-18T11:03:37.967Z,80.18
2018-12-18T11:04:37.936Z,77.81
2018-12-18T11:05:37.929Z,76.58
2018-12-18T11:06:37.915Z,77.61
2018-12-18T11:07:37.956Z,76.62
2018-12-18T11:08:37.914Z,78.53
2018-12-18T11:09:37.877Z,77.40
2018-12-18T11:10:37.874Z,78.53
2018-12-18T11:11:37.859Z,78.43
2018-12-18T11:12:37.845Z,78.36
2018-12-18T11:13:37.870Z,80.11
2018-12-18T11:14:37.849Z,77.85
2018-12-18T11:15:37.817Z,80.32
2018-12-18T11:16:37.802Z,77.99
2018-12-18T11:17:37.799Z,78.71
2018-12-18T11:18:37.785Z,78.30
2018-12-18T11:19:37.773Z,78.61
2018-12-18T11:20:37.784Z,79.33
2018-12-18T11:21:37.762Z,78.50
2018-12-18T11:22:37.744Z,78.13
2018-12-18T11:23:37.727Z,79.53
2018-12-18T11:24:37.714Z,79.43
2018-12-18T11:25:37.730Z,78.50
2018-12-18T11:26:37.711Z,78.61
2018-12-18T11:27:37.687Z,78.09
2018-12-18T11:28:37.678Z,79.05
2018-12-18T11:29:37.662Z,78.92
2018-12-18T11:30:37.697Z,78.23
2018-12-18T11:31:37.644Z,79.05
2018-12-18T11:32:37.633Z,78.54
2018-12-18T11:33:37.616Z,78.64
2018-12-18T11:34:37.608Z,78.54
2018-12-18T11:35:37.615Z,78.44
2018-12-18T11:36:37.585Z,78.64
2018-12-18T11:37:37.579Z,78.89
2018-12-18T11:38:37.566Z,78.58
2018-12-18T11:39:37.555Z,77.96
2018-12-18T11:40:37.567Z,78.37
2018-12-18T11:41:37.528Z,79.30
2018-12-18T11:42:37.525Z,79.36
2018-12-18T11:43:37.511Z,80.43
2018-12-18T11:44:37.512Z,79.16
2018-12-18T11:45:37.491Z,79.26
2018-12-18T11:46:37.479Z,79.57
2018-12-18T11:47:37.466Z,78.44
2018-12-18T11:48:37.452Z,79.16
2018-12-18T11:49:37.475Z,77.92
2018-12-18T11:50:37.434Z,78.44
2018-12-18T11:51:37.425Z,79.16
2018-12-18T11:52:37.415Z,78.68
2018-12-18T11:53:37.401Z,78.54
2018-12-18T11:54:37.407Z,78.54
2018-12-18T11:55:37.377Z,78.54
2018-12-18T11:56:37.364Z,79.26
2018-12-18T11:57:37.360Z,78.13
2018-12-18T11:58:37.373Z,78.13
2018-12-18T11:59:37.346Z,79.05
2018-12-18T12:00:37.327Z,78.64
2018-12-18T12:01:37.326Z,78.96
2018-12-18T12:02:42.719Z,78.13
2018-12-18T12:03:38.321Z,78.23
2018-12-18T12:04:37.276Z,78.44
2018-12-18T12:05:38.128Z,80.49
2018-12-18T12:06:37.267Z,78.54
2018-12-18T12:07:37.244Z,78.33
2018-12-18T12:08:37.238Z,78.64
2018-12-18T12:09:37.274Z,78.54
2018-12-18T12:10:37.230Z,77.45
2018-12-18T12:11:37.200Z,77.55
2018-12-18T12:12:37.201Z,78.23
2018-12-18T12:13:37.179Z,78.68
2018-12-18T12:14:37.185Z,77.41
2018-12-18T12:15:37.219Z,78.89
2018-12-18T12:16:37.146Z,77.65
2018-12-18T12:17:37.134Z,78.33
2018-12-18T12:18:37.129Z,78.27
2018-12-18T12:19:37.174Z,78.27
2018-12-18T12:20:37.119Z,77.65
2018-12-18T12:21:37.091Z,78.27
2018-12-18T12:22:37.086Z,78.17
2018-12-18T12:23:37.071Z,78.85
2018-12-18T12:24:37.081Z,78.78
2018-12-18T12:25:37.047Z,78.17
2018-12-18T12:26:37.043Z,78.58
2018-12-18T12:27:37.026Z,78.58
2018-12-18T12:28:37.014Z,78.06
2018-12-18T12:29:37.023Z,79.19
2018-12-18T12:30:37.008Z,78.37
2018-12-18T12:31:36.982Z,78.41
2018-12-18T12:32:36.971Z,78.27
2018-12-18T12:33:36.960Z,77.86
2018-12-18T12:34:36.948Z,78.68
2018-12-18T12:35:36.957Z,78.06
2018-12-18T12:36:36.927Z,78.68
2018-12-18T12:37:36.918Z,78.47
2018-12-18T12:38:36.905Z,79.30
2018-12-18T12:39:36.895Z,79.19
2018-12-18T12:40:36.901Z,78.68
2018-12-18T12:41:36.874Z,78.47
2018-12-18T12:42:36.888Z,78.37
2018-12-18T12:43:36.856Z,78.10
2018-12-18T12:44:36.838Z,78.58
2018-12-18T12:45:36.860Z,78.68
2018-12-18T12:46:36.819Z,78.17
2018-12-18T12:47:36.806Z,78.37
2018-12-18T12:48:36.813Z,78.78
2018-12-18T12:49:36.785Z,79.33
2018-12-18T12:50:36.784Z,78.82
2018-12-18T12:51:36.788Z,80.05
2018-12-18T12:52:36.752Z,79.64